Terminal Aerodrome Forecast
Issued by NWS Portland, OR

Home | Current Version | Previous Version | Text Only | Print | Product List | Glossary On
Versions: 1 2 3 4 5 6 7 8 9 10 11 12 13 14 15 16 17 18 19 20 21 22 23 24 25 26 27 28 29 30 31 32 33 34 35 36 37 38 39 40 41 42 43 44 45 46 47 48 49 50
000
FTUS46 KPQR 270539
TAFTTD
TAF
KTTD 270539Z 2706/2806 09008KT P6SM OVC120
     FM271100 10012KT P6SM -RA OVC050
     FM271400 VRB04KT P6SM -RA SCT020 OVC040
     FM271700 VRB04KT 5SM -SHRA BR BKN017 OVC030
     FM272100 19008KT P6SM -SHRA SCT012 BKN025 OVC040=

USA.gov is the U.S. government's official web portal to all federal, state and local government web resources and services.